DNKA

Kaduna Airport

Kaduna, Nigeria
METAR DNKA 151400Z 33009KT 9999 SCT011 FEW020CB 29/24 Q1016
Observed Flight Rules
Aug-15 @ 14:00 UTC (60 minutes ago) Visual Flight Rules
Wind Visibility Clouds
330° at 9 knots 10,000+ meters
  • Scattered at 1,100' AGL
  • Few at 2,000' AGL
Temperatures Readings
Current 29°C / 84°F
Dewpoint 24°C / 75°F
Humidity 74%
Altimeter 30" Hg
Pressure 1016 hPa
Elevation 642
METAR DNKA 151400Z 33009KT 9999 SCT011 FEW020CB 29/24 Q1016
Observed Flight Rules
Aug-15 @ 14:00 UTC
(60 minutes ago)
VFR
Wind Visibility
330° at 9 knots 10,000+ meters
Clouds
  • Scattered at 1,100' AGL
  • Few at 2,000' AGL
Temperature Dewpoint
29°C / 84°F 24°C / 75°F
Humidity Altimeter Pressure
74% 30" Hg 1016 hPa